Time;durP1;ratioP1;P1;durP2;ratioP2;P2;SDS_P1;SDS_P2;PMS_P1;PMS_P2;Temp;Humidity;BMP_temperature;BMP_pressure;BME280_temperature;BME280_humidity;BME280_pressure;Samples;Min_cycle;Max_cycle;Signal;HPM_P1;HPM_P2
2022/06/30 00:00:42;;;;;;;;;;;;;;;;;;5086616;28;19967;-85
2022/06/30 00:03:07;;;;;;;;;;;;;;;;;;5087132;28;20279;-85
2022/06/30 00:05:32;;;;;;;;;;;;;;;;;;5086910;28;19924;-85
2022/06/30 00:07:57;;;;;;;;;;;;;;;;;;5087304;28;20054;-84
2022/06/30 00:10:22;;;;;;;;;;;;;;;;;;5089851;28;19931;-84
2022/06/30 00:12:48;;;;;;;;;;;;;;;;;;5090137;28;20003;-84
2022/06/30 00:15:13;;;;;;;;;;;;;;;;;;5089600;28;19916;-84
2022/06/30 00:17:38;;;;;;;;;;;;;;;;;;5090936;28;19920;-85
2022/06/30 00:20:03;;;;;;;;;;;;;;;;;;5089174;28;19915;-85
2022/06/30 00:22:28;;;;;;;;;;;;;;;;;;5088418;28;19976;-85
2022/06/30 00:24:53;;;;;;;;;;;;;;;;;;5087724;28;19919;-85
2022/06/30 00:27:18;;;;;;;;;;;;;;;;;;5088000;28;19908;-85
2022/06/30 00:29:43;;;;;;;;;;;;;;;;;;5089321;28;19915;-85
2022/06/30 00:32:09;;;;;;;;;;;;;;;;;;5088835;28;19908;-85
2022/06/30 00:34:34;;;;;;;;;;;;;;;;;;5088646;28;20310;-85
2022/06/30 00:37:00;;;;;;;;;;;;;;;;;;5089079;28;19924;-85
2022/06/30 00:39:25;;;;;;;;;;;;;;;;;;5088975;28;19920;-85
2022/06/30 00:41:50;;;;;;;;;;;;;;;;;;5089342;28;19995;-85
2022/06/30 00:44:16;;;;;;;;;;;;;;;;;;5088689;28;19909;-85
2022/06/30 00:46:41;;;;;;;;;;;;;;;;;;5088937;28;19940;-85
2022/06/30 00:49:06;;;;;;;;;;;;;;;;;;5089359;28;20352;-85
2022/06/30 00:51:31;;;;;;;;;;;;;;;;;;5089297;28;20267;-84
2022/06/30 00:53:56;;;;;;;;;;;;;;;;;;5088740;28;19912;-84
2022/06/30 00:56:22;;;;;;;;;;;;;;;;;;5089015;28;19931;-84
2022/06/30 00:58:47;;;;;;;;;;;;;;;;;;5089337;28;19909;-84
2022/06/30 01:01:12;;;;;;;;;;;;;;;;;;5088573;28;19913;-84
2022/06/30 01:03:37;;;;;;;;;;;;;;;;;;5088700;28;19993;-84
2022/06/30 01:06:02;;;;;;;;;;;;;;;;;;5088473;28;19962;-84
2022/06/30 01:08:27;;;;;;;;;;;;;;;;;;5088209;28;19908;-84
2022/06/30 01:13:36;;;;;;;;;;;;;;;;;;5087738;28;19976;-84
2022/06/30 01:16:01;;;;;;;;;;;;;;;;;;5087618;28;20262;-84
2022/06/30 01:18:26;;;;;;;;;;;;;;;;;;5086795;28;19912;-84
2022/06/30 01:20:52;;;;;;;;;;;;;;;;;;5086566;28;19913;-85
2022/06/30 01:23:17;;;;;;;;;;;;;;;;;;5087009;28;19916;-84
2022/06/30 01:25:42;;;;;;;;;;;;;;;;;;5086377;28;19912;-84
2022/06/30 01:28:07;;;;;;;;;;;;;;;;;;5085988;28;19915;-84
2022/06/30 01:30:32;;;;;;;;;;;;;;;;;;5086212;28;19926;-84
2022/06/30 01:32:57;;;;;;;;;;;;;;;;;;5085618;28;19932;-84
2022/06/30 01:35:23;;;;;;;;;;;;;;;;;;5085209;28;20365;-84
2022/06/30 01:37:48;;;;;;;;;;;;;;;;;;5084493;28;19916;-83
2022/06/30 01:40:13;;;;;;;;;;;;;;;;;;5084255;28;19932;-84
2022/06/30 01:42:38;;;;;;;;;;;;;;;;;;5087294;28;19892;-84
2022/06/30 01:45:03;;;;;;;;;;;;;;;;;;5088833;28;19972;-84
2022/06/30 01:47:28;;;;;;;;;;;;;;;;;;5088469;28;19909;-84
2022/06/30 01:49:53;;;;;;;;;;;;;;;;;;5087830;28;19972;-84
2022/06/30 01:52:18;;;;;;;;;;;;;;;;;;5087813;28;19909;-84
2022/06/30 01:54:44;;;;;;;;;;;;;;;;;;5087043;28;20294;-84
2022/06/30 01:57:09;;;;;;;;;;;;;;;;;;5087628;28;20011;-84
2022/06/30 01:59:34;;;;;;;;;;;;;;;;;;5087616;28;19908;-84
2022/06/30 02:01:59;;;;;;;;;;;;;;;;;;5094191;22;19929;-84
2022/06/30 02:07:08;;;;;;;;;;;;;;;;;;5087474;28;19916;-84
2022/06/30 02:09:33;;;;;;;;;;;;;;;;;;5086825;28;19908;-84
2022/06/30 02:14:42;;;;;;;;;;;;;;;;;;5086385;28;19915;-84
2022/06/30 02:17:07;;;;;;;;;;;;;;;;;;5087104;28;19999;-84
2022/06/30 02:19:32;;;;;;;;;;;;;;;;;;5087528;28;19986;-84
2022/06/30 02:21:58;;;;;;;;;;;;;;;;;;5086615;28;19914;-84
2022/06/30 02:24:23;;;;;;;;;;;;;;;;;;5086504;28;19951;-84
2022/06/30 02:26:48;;;;;;;;;;;;;;;;;;5086276;28;19931;-84
2022/06/30 02:29:13;;;;;;;;;;;;;;;;;;5087153;28;19909;-84
2022/06/30 02:31:38;;;;;;;;;;;;;;;;;;5086879;28;20350;-84
2022/06/30 02:34:03;;;;;;;;;;;;;;;;;;5087142;28;19916;-84
2022/06/30 02:36:28;;;;;;;;;;;;;;;;;;5086883;28;19958;-84
2022/06/30 02:38:53;;;;;;;;;;;;;;;;;;5085679;28;20363;-84
2022/06/30 02:41:20;;;;;;;;;;;;;;;;;;5086888;28;20015;-83
2022/06/30 02:43:48;;;;;;;;;;;;;;;;;;5087309;28;20283;-85
2022/06/30 02:46:13;;;;;;;;;;;;;;;;;;5086511;28;19909;-86
2022/06/30 02:48:38;;;;;;;;;;;;;;;;;;5086716;28;19908;-83
2022/06/30 02:51:03;;;;;;;;;;;;;;;;;;5086864;28;19923;-83
2022/06/30 02:53:28;;;;;;;;;;;;;;;;;;5087157;28;19915;-84
2022/06/30 02:55:53;;;;;;;;;;;;;;;;;;5086822;28;19908;-84
2022/06/30 02:58:18;;;;;;;;;;;;;;;;;;5086383;28;19966;-84
2022/06/30 03:00:44;;;;;;;;;;;;;;;;;;5085839;28;19935;-84
2022/06/30 03:03:09;;;;;;;;;;;;;;;;;;5085548;28;20359;-84
2022/06/30 03:05:34;;;;;;;;;;;;;;;;;;5085887;28;19913;-84
2022/06/30 03:07:59;;;;;;;;;;;;;;;;;;5086075;28;19913;-84
2022/06/30 03:10:24;;;;;;;;;;;;;;;;;;5086245;28;19967;-84
2022/06/30 03:12:49;;;;;;;;;;;;;;;;;;5085681;28;19912;-84
2022/06/30 03:15:15;;;;;;;;;;;;;;;;;;5085588;28;19913;-85
2022/06/30 03:17:40;;;;;;;;;;;;;;;;;;5085306;28;19919;-85
2022/06/30 03:20:05;;;;;;;;;;;;;;;;;;5084715;28;19913;-85
2022/06/30 03:22:30;;;;;;;;;;;;;;;;;;5084082;28;19912;-85
2022/06/30 03:24:55;;;;;;;;;;;;;;;;;;5082508;28;19908;-85
2022/06/30 03:27:20;;;;;;;;;;;;;;;;;;5083440;28;19908;-85
2022/06/30 03:29:46;;;;;;;;;;;;;;;;;;5083021;28;19908;-85
2022/06/30 03:32:11;;;;;;;;;;;;;;;;;;5086618;28;19908;-85
2022/06/30 03:34:36;;;;;;;;;;;;;;;;;;5085384;28;19915;-85
2022/06/30 03:37:01;;;;;;;;;;;;;;;;;;5085770;28;19912;-85
2022/06/30 03:39:26;;;;;;;;;;;;;;;;;;5086256;28;20309;-85
2022/06/30 03:41:51;;;;;;;;;;;;;;;;;;5085771;28;19908;-85
2022/06/30 03:44:16;;;;;;;;;;;;;;;;;;5088437;28;19912;-85
2022/06/30 03:46:41;;;;;;;;;;;;;;;;;;5089353;28;19956;-85
2022/06/30 03:49:07;;;;;;;;;;;;;;;;;;5089200;28;19912;-85
2022/06/30 03:51:32;;;;;;;;;;;;;;;;;;5088990;28;19953;-85
2022/06/30 03:53:57;;;;;;;;;;;;;;;;;;5088212;28;19962;-85
2022/06/30 03:56:22;;;;;;;;;;;;;;;;;;5088520;28;19962;-85
2022/06/30 03:58:47;;;;;;;;;;;;;;;;;;5088473;28;19916;-85
2022/06/30 04:01:12;;;;;;;;;;;;;;;;;;5091170;28;19927;-85
2022/06/30 04:03:37;;;;;;;;;;;;;;;;;;5088687;28;19916;-85
2022/06/30 04:06:02;;;;;;;;;;;;;;;;;;5088120;28;20399;-85
2022/06/30 04:08:28;;;;;;;;;;;;;;;;;;5087528;28;19909;-85
2022/06/30 04:10:54;;;;;;;;;;;;;;;;;;5086513;28;19908;-85
2022/06/30 04:13:19;;;;;;;;;;;;;;;;;;5085523;28;19912;-85
2022/06/30 04:15:44;;;;;;;;;;;;;;;;;;5086413;28;19909;-85
2022/06/30 04:18:09;;;;;;;;;;;;;;;;;;5085147;28;19923;-85
2022/06/30 04:20:34;;;;;;;;;;;;;;;;;;5085168;28;19915;-85
2022/06/30 04:22:59;;;;;;;;;;;;;;;;;;5085883;28;20322;-85
2022/06/30 04:25:24;;;;;;;;;;;;;;;;;;5085821;28;20000;-85
2022/06/30 04:27:49;;;;;;;;;;;;;;;;;;5085792;28;19958;-85
2022/06/30 04:30:15;;;;;;;;;;;;;;;;;;5085957;28;19930;-85
2022/06/30 04:32:40;;;;;;;;;;;;;;;;;;5085630;28;19953;-85
2022/06/30 04:35:05;;;;;;;;;;;;;;;;;;5084848;28;19915;-85
2022/06/30 04:37:30;;;;;;;;;;;;;;;;;;5085232;28;20416;-85
2022/06/30 04:42:39;;;;;;;;;;;;;;;;;;5085142;28;19919;-85
2022/06/30 04:45:04;;;;;;;;;;;;;;;;;;5084749;28;19908;-85
2022/06/30 04:47:30;;;;;;;;;;;;;;;;;;5084637;28;19908;-85
2022/06/30 04:49:55;;;;;;;;;;;;;;;;;;5084589;28;20278;-85
2022/06/30 04:52:20;;;;;;;;;;;;;;;;;;5104351;28;20439;-85
2022/06/30 04:54:45;;;;;;;;;;;;;;;;;;5104416;28;20366;-85
2022/06/30 04:57:10;;;;;;;;;;;;;;;;;;5105410;28;19916;-85
2022/06/30 04:59:35;;;;;;;;;;;;;;;;;;5105267;28;19915;-85
2022/06/30 05:02:00;;;;;;;;;;;;;;;;;;5102699;28;19931;-84
2022/06/30 05:04:25;;;;;;;;;;;;;;;;;;5103766;28;19908;-85
2022/06/30 05:06:51;;;;;;;;;;;;;;;;;;5102184;28;19908;-85
2022/06/30 05:09:16;;;;;;;;;;;;;;;;;;5102650;28;20007;-84
2022/06/30 05:11:41;;;;;;;;;;;;;;;;;;5101172;28;19962;-85
2022/06/30 05:14:06;;;;;;;;;;;;;;;;;;5101063;28;19916;-85
2022/06/30 05:16:31;;;;;;;;;;;;;;;;;;5096234;28;19916;-85
2022/06/30 05:18:56;;;;;;;;;;;;;;;;;;5069802;28;19909;-84
2022/06/30 05:21:21;;;;;;;;;;;;;;;;;;5060916;28;19954;-85
2022/06/30 05:26:28;;;;;;;;;;;;;;;;;;5072884;28;19920;-84
2022/06/30 05:26:32;;;;;;;;;;;;;;;;;;5078145;28;19973;-84
2022/06/30 05:28:57;;;;;;;;;;;;;;;;;;5075311;28;19913;-85
2022/06/30 05:31:22;;;;;;;;;;;;;;;;;;5065053;28;19999;-84
2022/06/30 05:33:47;;;;;;;;;;;;;;;;;;5076656;28;20019;-85
2022/06/30 05:36:12;;;;;;;;;;;;;;;;;;5081356;28;19962;-85
2022/06/30 05:38:37;;;;;;;;;;;;;;;;;;5072767;28;20363;-85
2022/06/30 05:41:02;;;;;;;;;;;;;;;;;;5082639;28;19912;-85
2022/06/30 05:43:27;;;;;;;;;;;;;;;;;;5082281;28;19912;-85
2022/06/30 05:45:54;;;;;;;;;;;;;;;;;;5080132;28;19916;-85
2022/06/30 05:48:19;;;;;;;;;;;;;;;;;;5070362;28;19912;-84
2022/06/30 05:50:44;;;;;;;;;;;;;;;;;;5076994;28;19912;-85
2022/06/30 05:53:09;;;;;;;;;;;;;;;;;;5074611;28;19920;-85
2022/06/30 05:55:34;;;;;;;;;;;;;;;;;;5078166;28;19920;-85
2022/06/30 05:58:04;;;;;;;;;;;;;;;;;;5064440;28;19924;-85
2022/06/30 06:00:29;;;;;;;;;;;;;;;;;;5072850;28;20376;-85
2022/06/30 06:02:54;;;;;;;;;;;;;;;;;;5068624;28;19927;-85
2022/06/30 06:05:19;;;;;;;;;;;;;;;;;;5065876;28;20251;-85
2022/06/30 06:07:44;;;;;;;;;;;;;;;;;;5068336;28;19934;-85
2022/06/30 06:10:09;;;;;;;;;;;;;;;;;;5062222;28;21152;-85
2022/06/30 06:12:35;;;;;;;;;;;;;;;;;;5058814;28;20161;-84
2022/06/30 06:15:00;;;;;;;;;;;;;;;;;;5045230;28;19927;-84
2022/06/30 06:17:25;;;;;;;;;;;;;;;;;;5010352;28;21119;-84
2022/06/30 06:19:50;;;;;;;;;;;;;;;;;;4986917;28;19965;-85
2022/06/30 06:22:15;;;;;;;;;;;;;;;;;;4929320;28;20047;-84
2022/06/30 06:24:43;;;;;;;;;;;;;;;;;;4884597;28;19920;-85
2022/06/30 06:27:11;;;;;;;;;;;;;;;;;;4869513;28;20002;-84
2022/06/30 06:29:37;;;;;;;;;;;;;;;;;;4903266;28;20440;-84
2022/06/30 06:32:02;;;;;;;;;;;;;;;;;;4882580;28;23172;-84
2022/06/30 06:34:27;;;;;;;;;;;;;;;;;;4916605;28;19921;-84
2022/06/30 06:36:52;;;;;;;;;;;;;;;;;;4895329;28;22612;-83
2022/06/30 06:39:17;;;;;;;;;;;;;;;;;;4893728;28;20013;-83
2022/06/30 06:41:43;;;;;;;;;;;;;;;;;;4884981;28;27483;-84
2022/06/30 06:44:08;;;;;;;;;;;;;;;;;;4885904;28;30827;-84
2022/06/30 06:46:33;;;;;;;;;;;;;;;;;;4887539;28;37503;-83
2022/06/30 06:48:58;;;;;;;;;;;;;;;;;;4895842;28;20358;-83
2022/06/30 06:51:23;;;;;;;;;;;;;;;;;;4892343;28;29047;-84
2022/06/30 06:53:48;;;;;;;;;;;;;;;;;;4887285;28;25278;-84
2022/06/30 06:56:14;;;;;;;;;;;;;;;;;;4883552;28;21234;-84
2022/06/30 06:58:39;;;;;;;;;;;;;;;;;;4888595;28;20050;-85
2022/06/30 07:01:05;;;;;;;;;;;;;;;;;;4895778;28;21561;-83
2022/06/30 07:03:31;;;;;;;;;;;;;;;;;;4900818;28;21293;-83
2022/06/30 07:05:57;;;;;;;;;;;;;;;;;;4922740;28;19925;-84
2022/06/30 07:08:22;;;;;;;;;;;;;;;;;;4977966;28;20010;-84
2022/06/30 07:10:47;;;;;;;;;;;;;;;;;;4924454;28;20822;-85
2022/06/30 07:13:12;;;;;;;;;;;;;;;;;;4919969;28;20871;-84
2022/06/30 07:15:37;;;;;;;;;;;;;;;;;;4907507;28;20720;-84
2022/06/30 07:18:03;;;;;;;;;;;;;;;;;;4928641;28;19924;-85
2022/06/30 07:20:28;;;;;;;;;;;;;;;;;;5009794;28;19921;-86
2022/06/30 07:22:54;;;;;;;;;;;;;;;;;;5035497;28;19921;-85
2022/06/30 07:25:19;;;;;;;;;;;;;;;;;;4949061;28;19920;-86
2022/06/30 07:27:44;;;;;;;;;;;;;;;;;;4875043;28;19928;-85
2022/06/30 07:30:11;;;;;;;;;;;;;;;;;;5000086;28;19921;-86
2022/06/30 07:32:36;;;;;;;;;;;;;;;;;;4986131;28;19998;-85
2022/06/30 07:35:01;;;;;;;;;;;;;;;;;;4974489;28;20043;-85
2022/06/30 07:37:26;;;;;;;;;;;;;;;;;;4958577;28;19936;-86
2022/06/30 07:39:52;;;;;;;;;;;;;;;;;;4946448;28;20059;-86
2022/06/30 07:42:17;;;;;;;;;;;;;;;;;;4939308;28;19982;-86
2022/06/30 07:44:43;;;;;;;;;;;;;;;;;;4940325;28;19926;-86
2022/06/30 07:47:08;;;;;;;;;;;;;;;;;;4944943;28;19921;-85
2022/06/30 07:49:34;;;;;;;;;;;;;;;;;;4946688;28;22282;-85
2022/06/30 07:51:59;;;;;;;;;;;;;;;;;;4946094;28;21325;-85
2022/06/30 07:54:24;;;;;;;;;;;;;;;;;;4933833;28;20019;-85
2022/06/30 07:56:49;;;;;;;;;;;;;;;;;;4941526;28;22750;-85
2022/06/30 07:59:14;;;;;;;;;;;;;;;;;;4938826;28;20023;-84
2022/06/30 08:01:40;;;;;;;;;;;;;;;;;;4926887;28;20908;-85
2022/06/30 08:04:05;;;;;;;;;;;;;;;;;;4919666;28;28745;-84
2022/06/30 08:06:30;;;;;;;;;;;;;;;;;;4920107;28;19983;-85
2022/06/30 08:08:55;;;;;;;;;;;;;;;;;;4916902;28;19925;-86
2022/06/30 08:11:21;;;;;;;;;;;;;;;;;;4949992;28;19920;-86
2022/06/30 08:13:46;;;;;;;;;;;;;;;;;;4969173;28;19947;-87
2022/06/30 08:16:14;;;;;;;;;;;;;;;;;;4960543;28;19952;-86
2022/06/30 08:18:49;;;;;;;;;;;;;;;;;;4961116;28;19994;-87
2022/06/30 08:21:16;;;;;;;;;;;;;;;;;;4957591;28;22521;-87
2022/06/30 08:23:45;;;;;;;;;;;;;;;;;;4957132;28;20055;-86
2022/06/30 08:26:15;;;;;;;;;;;;;;;;;;4957739;28;19927;-85
2022/06/30 08:28:40;;;;;;;;;;;;;;;;;;4939812;28;25015;-85
2022/06/30 08:31:06;;;;;;;;;;;;;;;;;;4917592;28;19985;-84
2022/06/30 08:33:31;;;;;;;;;;;;;;;;;;4916140;28;19978;-84
2022/06/30 08:36:05;;;;;;;;;;;;;;;;;;4909589;28;23666;-84
2022/06/30 08:38:30;;;;;;;;;;;;;;;;;;4915178;28;20883;-84
2022/06/30 08:43:40;;;;;;;;;;;;;;;;;;4907349;28;22477;-84
2022/06/30 08:46:05;;;;;;;;;;;;;;;;;;4915028;28;20034;-83
2022/06/30 08:48:30;;;;;;;;;;;;;;;;;;4902399;28;19974;-85
2022/06/30 08:50:55;;;;;;;;;;;;;;;;;;4901687;28;19924;-84
2022/06/30 08:53:20;;;;;;;;;;;;;;;;;;4899543;28;20067;-84
2022/06/30 08:55:45;;;;;;;;;;;;;;;;;;4893064;28;24205;-84
2022/06/30 08:58:10;;;;;;;;;;;;;;;;;;4897840;28;37711;-84
2022/06/30 09:00:39;;;;;;;;;;;;;;;;;;4926039;28;20562;-86
2022/06/30 09:03:04;;;;;;;;;;;;;;;;;;4953509;28;20565;-86
2022/06/30 09:05:29;;;;;;;;;;;;;;;;;;4951188;28;20038;-85
2022/06/30 09:08:01;;;;;;;;;;;;;;;;;;4917425;28;19982;-85
2022/06/30 09:10:26;;;;;;;;;;;;;;;;;;4918677;28;20297;-85
2022/06/30 09:12:51;;;;;;;;;;;;;;;;;;4915846;28;20062;-84
2022/06/30 09:15:16;;;;;;;;;;;;;;;;;;4900472;28;33822;-83
2022/06/30 09:17:41;;;;;;;;;;;;;;;;;;4922328;28;40646;-83
2022/06/30 09:20:08;;;;;;;;;;;;;;;;;;4908625;28;19928;-82
2022/06/30 09:22:34;;;;;;;;;;;;;;;;;;4923985;28;28252;-84
2022/06/30 09:24:59;;;;;;;;;;;;;;;;;;4921399;28;20170;-84
2022/06/30 09:27:26;;;;;;;;;;;;;;;;;;4901676;28;23264;-84
2022/06/30 09:29:52;;;;;;;;;;;;;;;;;;4904409;28;19987;-82
2022/06/30 09:32:17;;;;;;;;;;;;;;;;;;4933897;28;21799;-85
2022/06/30 09:34:42;;;;;;;;;;;;;;;;;;4934976;28;19921;-83
2022/06/30 09:37:07;;;;;;;;;;;;;;;;;;4903481;28;20499;-84
2022/06/30 09:39:32;;;;;;;;;;;;;;;;;;4893798;28;20013;-82
2022/06/30 09:41:57;;;;;;;;;;;;;;;;;;4921136;28;21346;-84
2022/06/30 09:44:23;;;;;;;;;;;;;;;;;;4941360;28;19920;-83
2022/06/30 09:46:48;;;;;;;;;;;;;;;;;;4932417;28;19924;-84
2022/06/30 09:49:13;;;;;;;;;;;;;;;;;;4921914;28;20443;-84
2022/06/30 09:51:38;;;;;;;;;;;;;;;;;;4931938;28;19930;-83
2022/06/30 09:54:03;;;;;;;;;;;;;;;;;;4915223;28;19973;-84
2022/06/30 09:56:29;;;;;;;;;;;;;;;;;;4917676;28;20000;-83
2022/06/30 09:58:54;;;;;;;;;;;;;;;;;;4909332;28;19929;-86
2022/06/30 10:01:19;;;;;;;;;;;;;;;;;;4933339;28;20125;-85
2022/06/30 10:03:44;;;;;;;;;;;;;;;;;;4964149;28;19935;-84
2022/06/30 10:06:10;;;;;;;;;;;;;;;;;;4967758;28;19924;-86
2022/06/30 10:08:35;;;;;;;;;;;;;;;;;;4968471;28;20007;-86
2022/06/30 10:11:00;;;;;;;;;;;;;;;;;;4984556;28;21580;-86
2022/06/30 10:13:26;;;;;;;;;;;;;;;;;;4996187;28;19921;-87
2022/06/30 10:15:53;;;;;;;;;;;;;;;;;;4975698;28;19928;-86
2022/06/30 10:18:19;;;;;;;;;;;;;;;;;;4985261;28;19924;-85
2022/06/30 10:20:44;;;;;;;;;;;;;;;;;;4978018;28;23551;-85
2022/06/30 10:23:09;;;;;;;;;;;;;;;;;;4980283;28;19964;-86
2022/06/30 10:25:35;;;;;;;;;;;;;;;;;;4991254;28;19939;-86
2022/06/30 10:28:00;;;;;;;;;;;;;;;;;;4979451;28;20055;-86
2022/06/30 10:30:34;;;;;;;;;;;;;;;;;;4979827;28;19920;-86
2022/06/30 10:33:01;;;;;;;;;;;;;;;;;;4973776;28;20046;-86
2022/06/30 10:35:44;;;;;;;;;;;;;;;;;;4977944;28;20787;-86
2022/06/30 10:38:10;;;;;;;;;;;;;;;;;;4969102;28;19924;-86
2022/06/30 10:40:35;;;;;;;;;;;;;;;;;;4972516;28;20051;-86
2022/06/30 10:43:00;;;;;;;;;;;;;;;;;;4958342;28;19943;-84
2022/06/30 10:45:25;;;;;;;;;;;;;;;;;;4961984;28;22084;-86
2022/06/30 10:47:50;;;;;;;;;;;;;;;;;;4964828;28;19920;-85
2022/06/30 10:50:15;;;;;;;;;;;;;;;;;;4949365;28;23763;-85
2022/06/30 10:52:40;;;;;;;;;;;;;;;;;;4945882;28;19925;-84
2022/06/30 10:55:11;;;;;;;;;;;;;;;;;;4943864;28;37613;-86
2022/06/30 10:57:36;;;;;;;;;;;;;;;;;;4963054;28;19924;-84
2022/06/30 11:00:01;;;;;;;;;;;;;;;;;;4941300;28;20079;-86
2022/06/30 11:02:26;;;;;;;;;;;;;;;;;;4934339;28;19994;-85
2022/06/30 11:04:51;;;;;;;;;;;;;;;;;;4937328;28;21259;-85
2022/06/30 11:07:17;;;;;;;;;;;;;;;;;;4917708;28;20196;-86
2022/06/30 11:09:42;;;;;;;;;;;;;;;;;;4918799;28;20968;-85
2022/06/30 11:12:07;;;;;;;;;;;;;;;;;;4926619;28;20039;-85
2022/06/30 11:14:32;;;;;;;;;;;;;;;;;;4916012;28;23779;-84
2022/06/30 11:16:57;;;;;;;;;;;;;;;;;;4922718;28;19929;-84
2022/06/30 11:19:23;;;;;;;;;;;;;;;;;;4932465;28;19920;-86
2022/06/30 11:21:48;;;;;;;;;;;;;;;;;;4930444;28;20034;-86
2022/06/30 11:24:15;;;;;;;;;;;;;;;;;;4937032;28;21006;-86
2022/06/30 11:29:26;;;;;;;;;;;;;;;;;;4895078;28;19927;-85
2022/06/30 11:31:51;;;;;;;;;;;;;;;;;;4903137;28;20497;-85
2022/06/30 11:34:17;;;;;;;;;;;;;;;;;;4904956;28;20339;-86
2022/06/30 11:36:42;;;;;;;;;;;;;;;;;;4916629;28;20756;-86
2022/06/30 11:39:07;;;;;;;;;;;;;;;;;;4884072;28;21161;-85
2022/06/30 11:44:16;;;;;;;;;;;;;;;;;;4952347;28;20018;-86
2022/06/30 11:46:41;;;;;;;;;;;;;;;;;;4977407;28;19978;-82
2022/06/30 11:49:07;;;;;;;;;;;;;;;;;;4973403;28;26604;-85
2022/06/30 11:51:32;;;;;;;;;;;;;;;;;;4994327;28;19921;-86
2022/06/30 11:53:57;;;;;;;;;;;;;;;;;;4962937;28;30516;-85
2022/06/30 11:56:24;;;;;;;;;;;;;;;;;;4989984;28;21227;-85
2022/06/30 11:58:49;;;;;;;;;;;;;;;;;;4924232;28;25825;-84
2022/06/30 12:01:15;;;;;;;;;;;;;;;;;;4909058;28;21975;-84
2022/06/30 12:03:43;;;;;;;;;;;;;;;;;;4910026;28;20001;-84
2022/06/30 12:06:08;;;;;;;;;;;;;;;;;;4940150;28;27029;-84
2022/06/30 12:08:33;;;;;;;;;;;;;;;;;;4931532;28;19920;-85
2022/06/30 12:10:58;;;;;;;;;;;;;;;;;;4914550;28;19960;-85
2022/06/30 12:13:23;;;;;;;;;;;;;;;;;;4916722;28;19963;-85
2022/06/30 12:15:50;;;;;;;;;;;;;;;;;;4913261;28;19954;-85
2022/06/30 12:18:16;;;;;;;;;;;;;;;;;;4912608;28;20662;-83
2022/06/30 12:20:43;;;;;;;;;;;;;;;;;;4938977;28;20003;-84
2022/06/30 12:23:08;;;;;;;;;;;;;;;;;;4931348;28;20038;-84
2022/06/30 12:25:33;;;;;;;;;;;;;;;;;;4921212;28;19972;-85
2022/06/30 12:27:59;;;;;;;;;;;;;;;;;;4926693;28;22508;-84
2022/06/30 12:30:26;;;;;;;;;;;;;;;;;;4916518;28;24676;-84
2022/06/30 12:32:51;;;;;;;;;;;;;;;;;;4929339;28;23684;-85
2022/06/30 12:35:16;;;;;;;;;;;;;;;;;;4909976;28;19927;-85
2022/06/30 12:37:41;;;;;;;;;;;;;;;;;;4909505;28;19925;-85
2022/06/30 12:40:07;;;;;;;;;;;;;;;;;;4914326;28;19920;-85
2022/06/30 12:42:32;;;;;;;;;;;;;;;;;;4921209;28;20026;-85
2022/06/30 12:44:57;;;;;;;;;;;;;;;;;;4914207;28;20734;-85
2022/06/30 12:47:22;;;;;;;;;;;;;;;;;;4921787;28;19928;-85
2022/06/30 12:49:47;;;;;;;;;;;;;;;;;;4909087;28;19967;-85
2022/06/30 12:52:13;;;;;;;;;;;;;;;;;;4910410;28;19963;-85
2022/06/30 12:54:38;;;;;;;;;;;;;;;;;;4910255;28;19927;-85
2022/06/30 12:57:03;;;;;;;;;;;;;;;;;;4907836;28;23993;-85
2022/06/30 12:59:29;;;;;;;;;;;;;;;;;;4920868;28;19960;-85
2022/06/30 13:01:54;;;;;;;;;;;;;;;;;;4916600;28;20055;-85
2022/06/30 13:04:19;;;;;;;;;;;;;;;;;;4913473;28;19932;-85
2022/06/30 13:06:44;;;;;;;;;;;;;;;;;;4932158;28;19921;-85
2022/06/30 13:09:09;;;;;;;;;;;;;;;;;;4936547;28;22742;-85
2022/06/30 13:11:34;;;;;;;;;;;;;;;;;;4934562;28;20965;-83
2022/06/30 13:13:59;;;;;;;;;;;;;;;;;;4966672;28;20481;-84
2022/06/30 13:16:25;;;;;;;;;;;;;;;;;;4948735;28;20377;-84
2022/06/30 13:18:50;;;;;;;;;;;;;;;;;;4953368;28;21227;-82
2022/06/30 13:21:15;;;;;;;;;;;;;;;;;;4964400;28;19928;-83
2022/06/30 13:23:40;;;;;;;;;;;;;;;;;;4975742;28;20314;-84
2022/06/30 13:26:06;;;;;;;;;;;;;;;;;;4987929;28;19920;-84
2022/06/30 13:28:31;;;;;;;;;;;;;;;;;;4985793;28;19971;-85
2022/06/30 13:30:56;;;;;;;;;;;;;;;;;;4986662;28;19921;-84
2022/06/30 13:33:21;;;;;;;;;;;;;;;;;;4975491;28;19979;-84
2022/06/30 13:35:46;;;;;;;;;;;;;;;;;;4994357;28;19929;-84
2022/06/30 13:38:11;;;;;;;;;;;;;;;;;;5009296;28;19925;-83
2022/06/30 13:40:42;;;;;;;;;;;;;;;;;;4994634;28;21089;-83
2022/06/30 13:43:07;;;;;;;;;;;;;;;;;;5004722;28;19970;-83
2022/06/30 13:45:32;;;;;;;;;;;;;;;;;;4997021;28;19928;-83
2022/06/30 13:47:57;;;;;;;;;;;;;;;;;;4995603;28;19943;-84
2022/06/30 13:50:22;;;;;;;;;;;;;;;;;;4995839;28;19927;-84
2022/06/30 13:52:47;;;;;;;;;;;;;;;;;;4991849;28;20721;-84
2022/06/30 13:55:12;;;;;;;;;;;;;;;;;;4993416;28;19924;-84
2022/06/30 13:57:38;;;;;;;;;;;;;;;;;;4991922;28;19924;-84
2022/06/30 14:00:03;;;;;;;;;;;;;;;;;;4979472;28;19927;-84
2022/06/30 14:02:28;;;;;;;;;;;;;;;;;;4975407;22;21574;-85
2022/06/30 14:04:53;;;;;;;;;;;;;;;;;;4954095;28;20042;-84
2022/06/30 14:07:18;;;;;;;;;;;;;;;;;;4989830;28;19927;-84
2022/06/30 14:09:43;;;;;;;;;;;;;;;;;;5011734;28;19979;-84
2022/06/30 14:12:09;;;;;;;;;;;;;;;;;;5034376;28;19981;-84
2022/06/30 14:14:34;;;;;;;;;;;;;;;;;;5047340;28;19916;-84
2022/06/30 14:16:59;;;;;;;;;;;;;;;;;;5060375;28;19966;-84
2022/06/30 14:19:24;;;;;;;;;;;;;;;;;;5057010;28;20010;-84
2022/06/30 14:21:49;;;;;;;;;;;;;;;;;;5037934;28;19918;-84
2022/06/30 14:24:14;;;;;;;;;;;;;;;;;;5017133;28;19921;-84
2022/06/30 14:26:40;;;;;;;;;;;;;;;;;;5019683;28;21139;-84
2022/06/30 14:29:06;;;;;;;;;;;;;;;;;;5038897;28;19917;-86
2022/06/30 14:31:31;;;;;;;;;;;;;;;;;;5040220;28;20010;-83
2022/06/30 14:33:56;;;;;;;;;;;;;;;;;;5024460;28;19927;-84
2022/06/30 14:36:22;;;;;;;;;;;;;;;;;;5040963;28;20355;-83
2022/06/30 14:38:47;;;;;;;;;;;;;;;;;;5037526;28;19932;-83
2022/06/30 14:41:12;;;;;;;;;;;;;;;;;;5040889;28;19920;-83
2022/06/30 14:43:37;;;;;;;;;;;;;;;;;;5022982;28;19928;-82
2022/06/30 14:46:02;;;;;;;;;;;;;;;;;;5031474;28;19928;-85
2022/06/30 14:48:28;;;;;;;;;;;;;;;;;;5046440;28;20572;-85
2022/06/30 14:50:53;;;;;;;;;;;;;;;;;;5056926;28;20027;-84
2022/06/30 14:53:18;;;;;;;;;;;;;;;;;;5030765;28;19920;-85
2022/06/30 14:55:43;;;;;;;;;;;;;;;;;;5045685;28;19931;-85
2022/06/30 14:58:08;;;;;;;;;;;;;;;;;;5057194;28;19931;-85
2022/06/30 15:00:38;;;;;;;;;;;;;;;;;;5053082;28;19927;-85
2022/06/30 15:03:03;;;;;;;;;;;;;;;;;;5068923;28;19924;-84
2022/06/30 15:05:30;;;;;;;;;;;;;;;;;;5071945;28;19923;-85
2022/06/30 15:07:55;;;;;;;;;;;;;;;;;;5083779;28;19931;-86
2022/06/30 15:10:20;;;;;;;;;;;;;;;;;;5080370;28;19920;-87
2022/06/30 15:12:46;;;;;;;;;;;;;;;;;;5073670;28;19912;-87
2022/06/30 15:15:11;;;;;;;;;;;;;;;;;;5065488;28;19912;-87
2022/06/30 15:17:36;;;;;;;;;;;;;;;;;;5067412;28;20263;-87
2022/06/30 15:20:01;;;;;;;;;;;;;;;;;;5067989;28;20289;-86
2022/06/30 15:25:10;;;;;;;;;;;;;;;;;;5073848;28;19919;-87
2022/06/30 15:27:35;;;;;;;;;;;;;;;;;;5066234;28;19921;-88
2022/06/30 15:30:01;;;;;;;;;;;;;;;;;;5071681;28;19978;-88
2022/06/30 15:32:28;;;;;;;;;;;;;;;;;;5072105;28;20267;-88
2022/06/30 15:34:53;;;;;;;;;;;;;;;;;;5073824;28;19912;-88
2022/06/30 15:37:18;;;;;;;;;;;;;;;;;;5089804;28;19916;-88
2022/06/30 15:39:43;;;;;;;;;;;;;;;;;;5069860;28;19920;-88
2022/06/30 15:42:08;;;;;;;;;;;;;;;;;;5074335;28;19927;-88
2022/06/30 15:44:33;;;;;;;;;;;;;;;;;;5084023;28;19913;-88
2022/06/30 15:46:59;;;;;;;;;;;;;;;;;;5078783;28;20367;-88
2022/06/30 15:49:24;;;;;;;;;;;;;;;;;;5079678;28;19912;-87
2022/06/30 15:51:49;;;;;;;;;;;;;;;;;;5078427;28;19962;-88
2022/06/30 15:54:14;;;;;;;;;;;;;;;;;;5089375;28;20022;-88
2022/06/30 15:56:39;;;;;;;;;;;;;;;;;;5078247;28;19971;-88
2022/06/30 15:59:05;;;;;;;;;;;;;;;;;;5071365;28;19917;-88
2022/06/30 16:01:30;;;;;;;;;;;;;;;;;;5010361;28;1869319;-88
2022/06/30 16:03:55;;;;;;;;;;;;;;;;;;5082296;28;19920;-87
2022/06/30 16:06:21;;;;;;;;;;;;;;;;;;5071258;28;19913;-87
2022/06/30 16:08:46;;;;;;;;;;;;;;;;;;5079777;28;19912;-87
2022/06/30 16:11:11;;;;;;;;;;;;;;;;;;5078841;28;19915;-87
2022/06/30 16:13:36;;;;;;;;;;;;;;;;;;5080766;28;19932;-87
2022/06/30 16:16:03;;;;;;;;;;;;;;;;;;5080655;28;20007;-86
2022/06/30 16:18:28;;;;;;;;;;;;;;;;;;5079198;28;19913;-86
2022/06/30 16:20:53;;;;;;;;;;;;;;;;;;5080150;28;19971;-86
2022/06/30 16:23:19;;;;;;;;;;;;;;;;;;5080327;28;20306;-86
2022/06/30 16:25:44;;;;;;;;;;;;;;;;;;5080403;28;19952;-86
2022/06/30 16:28:09;;;;;;;;;;;;;;;;;;5079282;28;20367;-86
2022/06/30 16:30:34;;;;;;;;;;;;;;;;;;5080315;28;20342;-87
2022/06/30 16:33:00;;;;;;;;;;;;;;;;;;5080626;28;19952;-86
2022/06/30 16:35:25;;;;;;;;;;;;;;;;;;5079885;28;19908;-87
2022/06/30 16:37:50;;;;;;;;;;;;;;;;;;5078934;28;19916;-87
2022/06/30 16:40:15;;;;;;;;;;;;;;;;;;5080162;28;19916;-87
2022/06/30 16:42:41;;;;;;;;;;;;;;;;;;5078560;28;19913;-87
2022/06/30 16:45:07;;;;;;;;;;;;;;;;;;5079917;28;20022;-87
2022/06/30 16:47:32;;;;;;;;;;;;;;;;;;5080368;28;19958;-87
2022/06/30 16:49:57;;;;;;;;;;;;;;;;;;5080864;28;19908;-87
2022/06/30 16:52:22;;;;;;;;;;;;;;;;;;5087022;28;19908;-87
2022/06/30 16:54:48;;;;;;;;;;;;;;;;;;5080026;28;19931;-87